createdAt,value
2023-05-24T00:00:16.153Z,12.33
2023-05-24T00:03:39.426Z,12.26
2023-05-24T00:07:03.365Z,12.14
2023-05-24T00:10:25.065Z,12.05
2023-05-24T00:13:46.927Z,11.96
2023-05-24T00:17:08.665Z,11.96
2023-05-24T00:20:32.366Z,11.94
2023-05-24T00:23:54.238Z,11.94
2023-05-24T00:27:16.464Z,11.88
2023-05-24T00:30:38.197Z,11.81
2023-05-24T00:34:00.063Z,11.78
2023-05-24T00:37:23.688Z,11.75
2023-05-24T00:40:45.174Z,11.65
2023-05-24T00:44:07.293Z,11.56
2023-05-24T00:47:29.027Z,11.48
2023-05-24T00:50:50.939Z,11.43
2023-05-24T00:54:15.187Z,11.36
2023-05-24T00:57:38.128Z,11.34
2023-05-24T01:01:01.473Z,11.34
2023-05-24T01:04:23.055Z,11.32
2023-05-24T01:07:55.545Z,11.33
2023-05-24T01:11:30.272Z,11.34
2023-05-24T01:15:01.904Z,11.32
2023-05-24T01:18:30.412Z,11.30
2023-05-24T01:22:12.049Z,11.26
2023-05-24T01:25:50.865Z,11.21
2023-05-24T01:29:14.928Z,11.17
2023-05-24T01:32:36.585Z,11.10
2023-05-24T01:35:58.057Z,11.05
2023-05-24T01:39:21.308Z,10.98
2023-05-24T01:42:49.193Z,10.94
2023-05-24T01:46:20.402Z,10.88
2023-05-24T01:49:49.609Z,10.85
2023-05-24T01:53:14.961Z,10.82
2023-05-24T01:56:38.176Z,10.76
2023-05-24T02:00:02.287Z,10.71
2023-05-24T02:03:37.979Z,10.64
2023-05-24T02:06:59.752Z,10.59
2023-05-24T02:10:22.064Z,10.52
2023-05-24T02:13:43.838Z,10.48
2023-05-24T02:17:06.892Z,10.41
2023-05-24T02:20:36.658Z,10.36
2023-05-24T02:23:58.541Z,10.30
2023-05-24T02:27:20.220Z,10.25
2023-05-24T02:30:44.843Z,10.22
2023-05-24T02:34:07.678Z,10.16
2023-05-24T02:37:31.271Z,10.12
2023-05-24T02:40:52.682Z,10.07
2023-05-24T02:44:14.570Z,10.04
2023-05-24T02:47:36.562Z,10.01
2023-05-24T02:50:58.332Z,9.97
2023-05-24T02:54:21.551Z,9.95
2023-05-24T02:57:43.346Z,9.93
2023-05-24T03:01:06.012Z,9.93
2023-05-24T03:04:27.627Z,9.93
2023-05-24T03:07:49.756Z,9.96
2023-05-24T03:11:13.391Z,9.99
2023-05-24T03:14:36.095Z,10.02
2023-05-24T03:17:58.216Z,10.03
2023-05-24T03:21:21.201Z,10.04
2023-05-24T03:24:43.155Z,10.04
2023-05-24T03:28:08.423Z,10.05
2023-05-24T03:31:30.215Z,10.04
2023-05-24T03:34:51.843Z,10.04
2023-05-24T03:38:13.491Z,10.05
2023-05-24T03:41:38.298Z,10.06
2023-05-24T03:45:01.290Z,10.06
2023-05-24T03:48:22.868Z,10.08
2023-05-24T03:51:46.630Z,10.08
2023-05-24T03:55:08.894Z,10.09
2023-05-24T03:58:31.076Z,10.10
2023-05-24T04:01:54.523Z,10.12
2023-05-24T04:05:16.266Z,10.14
2023-05-24T04:08:37.852Z,10.16
2023-05-24T04:11:59.816Z,10.19
2023-05-24T04:15:21.356Z,10.20
2023-05-24T04:18:45.428Z,10.22
2023-05-24T04:22:07.387Z,10.26
2023-05-24T04:25:33.278Z,10.32
2023-05-24T04:28:55.437Z,10.32
2023-05-24T04:32:19.902Z,10.37
2023-05-24T04:35:44.308Z,10.40
2023-05-24T04:39:07.047Z,10.44
2023-05-24T04:42:31.894Z,10.50
2023-05-24T04:45:54.653Z,10.51
2023-05-24T04:49:16.388Z,10.54
2023-05-24T04:52:39.622Z,10.62
2023-05-24T04:56:01.649Z,10.70
2023-05-24T04:59:23.192Z,10.77
2023-05-24T05:02:45.165Z,10.85
2023-05-24T05:06:07.230Z,10.91
2023-05-24T05:09:30.472Z,10.98
2023-05-24T05:12:52.729Z,11.04
2023-05-24T05:16:14.511Z,11.06
2023-05-24T05:19:36.177Z,11.10
2023-05-24T05:22:57.991Z,11.13
2023-05-24T05:26:21.344Z,11.14
2023-05-24T05:29:42.744Z,11.11
2023-05-24T05:33:06.137Z,11.14
2023-05-24T05:36:28.333Z,11.14
2023-05-24T05:39:49.889Z,11.21
2023-05-24T05:43:13.156Z,11.24
2023-05-24T05:46:34.785Z,11.24
2023-05-24T05:49:56.477Z,11.27
2023-05-24T05:53:18.416Z,11.35
2023-05-24T05:56:45.195Z,11.38
2023-05-24T06:00:10.053Z,11.43
2023-05-24T06:03:34.797Z,11.48
2023-05-24T06:06:57.034Z,11.53
2023-05-24T06:10:18.647Z,11.57
2023-05-24T06:13:40.403Z,11.55
2023-05-24T06:17:04.082Z,11.58
2023-05-24T06:20:26.177Z,11.57
2023-05-24T06:23:48.600Z,11.57
2023-05-24T06:27:10.446Z,11.61
2023-05-24T06:30:33.956Z,11.63
2023-05-24T06:37:25.450Z,11.70
2023-05-24T06:40:46.959Z,11.69
2023-05-24T06:44:08.650Z,11.71
2023-05-24T06:47:30.270Z,11.75
2023-05-24T06:50:53.249Z,11.82
2023-05-24T06:54:15.173Z,11.87
2023-05-24T06:57:36.902Z,11.97
2023-05-24T07:00:59.139Z,12.05
2023-05-24T07:04:21.181Z,12.11
2023-05-24T07:07:44.504Z,12.19
2023-05-24T07:11:06.319Z,12.26
2023-05-24T07:14:29.274Z,12.36
2023-05-24T07:17:51.069Z,12.39
2023-05-24T07:21:12.599Z,12.41
2023-05-24T07:24:35.886Z,12.44
2023-05-24T07:27:57.521Z,12.50
2023-05-24T07:31:18.930Z,12.51
2023-05-24T07:34:41.557Z,12.50
2023-05-24T07:38:03.139Z,12.48
2023-05-24T07:41:29.377Z,12.48
2023-05-24T07:44:51.016Z,12.54
2023-05-24T07:48:12.541Z,12.59
2023-05-24T07:51:34.503Z,12.71
2023-05-24T07:54:57.021Z,12.71
2023-05-24T07:58:22.636Z,12.79
2023-05-24T08:01:44.391Z,12.90
2023-05-24T08:05:09.425Z,12.95
2023-05-24T08:08:31.238Z,12.97
2023-05-24T08:11:52.757Z,12.99
2023-05-24T08:15:16.379Z,13.00
2023-05-24T08:18:38.254Z,13.05
2023-05-24T08:22:04.630Z,13.01
2023-05-24T08:25:27.142Z,13.13
2023-05-24T08:28:48.989Z,13.22
2023-05-24T08:32:11.873Z,13.30
2023-05-24T08:35:33.595Z,13.44
2023-05-24T08:38:54.998Z,13.60
2023-05-24T08:42:16.934Z,13.68
2023-05-24T08:45:40.281Z,13.80
2023-05-24T08:49:04.339Z,13.86
2023-05-24T08:52:26.644Z,13.88
2023-05-24T08:55:49.846Z,13.91
2023-05-24T08:59:13.530Z,13.92
2023-05-24T09:02:35.769Z,13.93
2023-05-24T09:06:01.036Z,14.01
2023-05-24T09:09:23.689Z,14.12
2023-05-24T09:12:47.103Z,14.21
2023-05-24T09:16:09.749Z,14.21
2023-05-24T09:19:31.508Z,14.17
2023-05-24T09:22:55.136Z,14.17
2023-05-24T09:26:16.590Z,14.09
2023-05-24T09:29:38.934Z,14.06
2023-05-24T09:33:02.246Z,13.98
2023-05-24T09:36:24.313Z,13.92
2023-05-24T09:39:48.126Z,13.97
2023-05-24T09:43:11.330Z,13.88
2023-05-24T09:46:38.510Z,13.92
2023-05-24T09:50:00.985Z,13.98
2023-05-24T09:53:23.653Z,14.05
2023-05-24T09:56:48.058Z,14.09
2023-05-24T10:00:17.716Z,14.17
2023-05-24T10:03:39.778Z,14.26
2023-05-24T10:07:03.599Z,14.28
2023-05-24T10:10:30.755Z,14.38
2023-05-24T10:13:54.349Z,14.35
2023-05-24T10:17:16.160Z,14.41
2023-05-24T10:20:38.046Z,14.47
2023-05-24T10:24:00.939Z,14.51
2023-05-24T10:27:26.931Z,14.56
2023-05-24T10:31:02.762Z,14.62
2023-05-24T10:34:24.916Z,14.65
2023-05-24T10:37:47.760Z,14.59
2023-05-24T10:41:10.367Z,14.62
2023-05-24T10:44:32.746Z,14.61
2023-05-24T10:47:56.490Z,14.57
2023-05-24T10:51:36.753Z,14.59
2023-05-24T10:55:05.822Z,14.69
2023-05-24T10:58:46.201Z,14.76
2023-05-24T11:02:13.742Z,14.85
2023-05-24T11:09:10.760Z,15.04
2023-05-24T11:12:38.568Z,15.18
2023-05-24T11:16:01.650Z,15.28
2023-05-24T11:19:25.425Z,15.33
2023-05-24T11:22:47.771Z,15.37
2023-05-24T11:26:11.111Z,15.42
2023-05-24T11:29:33.100Z,15.54
2023-05-24T11:32:58.014Z,15.63
2023-05-24T11:36:21.304Z,15.65
2023-05-24T11:39:43.534Z,15.67
2023-05-24T11:43:08.548Z,15.74
2023-05-24T11:46:30.827Z,15.75
2023-05-24T11:49:52.821Z,15.75
2023-05-24T11:53:15.535Z,15.81
2023-05-24T11:56:37.514Z,15.87
2023-05-24T12:00:00.920Z,15.93
2023-05-24T12:03:23.097Z,15.98
2023-05-24T12:06:46.157Z,15.90
2023-05-24T12:10:09.839Z,15.90
2023-05-24T12:13:31.665Z,15.99
2023-05-24T12:16:57.488Z,16.11
2023-05-24T12:20:20.510Z,16.13
2023-05-24T12:23:42.419Z,16.19
2023-05-24T12:27:08.288Z,16.30
2023-05-24T12:30:31.588Z,16.45
2023-05-24T12:33:55.254Z,16.51
2023-05-24T12:37:18.522Z,16.46
2023-05-24T12:40:44.608Z,16.38
2023-05-24T12:44:06.554Z,16.39
2023-05-24T12:47:28.558Z,16.45
2023-05-24T12:50:52.245Z,16.49
2023-05-24T12:54:13.749Z,16.57
2023-05-24T12:57:35.447Z,16.64
2023-05-24T13:00:57.652Z,16.69
2023-05-24T13:04:19.626Z,16.66
2023-05-24T13:07:45.835Z,16.66
2023-05-24T13:11:07.312Z,16.67
2023-05-24T13:14:28.687Z,16.71
2023-05-24T13:17:50.111Z,16.70
2023-05-24T13:21:12.521Z,16.67
2023-05-24T13:24:35.570Z,16.72
2023-05-24T13:27:57.522Z,16.66
2023-05-24T13:31:19.586Z,16.75
2023-05-24T13:34:42.371Z,16.86
2023-05-24T13:38:04.163Z,17.01
2023-05-24T13:41:27.351Z,17.12
2023-05-24T13:44:49.257Z,17.18
2023-05-24T13:48:11.518Z,17.01
2023-05-24T13:51:34.302Z,17.05
2023-05-24T13:54:55.960Z,17.05
2023-05-24T13:58:19.369Z,17.13
2023-05-24T14:01:41.335Z,17.12
2023-05-24T14:05:21.723Z,17.10
2023-05-24T14:08:45.720Z,17.13
2023-05-24T14:12:08.278Z,17.17
2023-05-24T14:15:33.204Z,17.23
2023-05-24T14:18:55.218Z,17.31
2023-05-24T14:22:17.399Z,17.34
2023-05-24T14:25:38.786Z,17.38
2023-05-24T14:29:00.674Z,17.32
2023-05-24T14:32:23.628Z,17.10
2023-05-24T14:35:46.554Z,17.04
2023-05-24T14:39:09.106Z,16.90
2023-05-24T14:42:31.330Z,16.78
2023-05-24T14:45:53.471Z,16.77
2023-05-24T14:49:16.677Z,16.82
2023-05-24T14:52:38.007Z,16.81
2023-05-24T14:55:59.803Z,16.76
2023-05-24T14:59:22.593Z,16.74
2023-05-24T15:02:44.512Z,16.78
2023-05-24T15:06:08.241Z,16.83
2023-05-24T15:09:29.686Z,16.98
2023-05-24T15:12:52.106Z,17.22
2023-05-24T15:16:13.933Z,17.53
2023-05-24T15:19:36.131Z,17.87
2023-05-24T15:22:59.368Z,18.25
2023-05-24T15:26:22.721Z,18.56
2023-05-24T15:29:44.369Z,18.81
2023-05-24T15:33:06.559Z,19.05
2023-05-24T15:36:28.771Z,19.14
2023-05-24T15:39:52.671Z,19.16
2023-05-24T15:43:15.556Z,18.91
2023-05-24T15:46:37.973Z,18.64
2023-05-24T15:49:59.656Z,18.41
2023-05-24T15:53:21.932Z,18.57
2023-05-24T15:56:45.282Z,18.89
2023-05-24T16:00:08.067Z,18.98
2023-05-24T16:03:37.893Z,19.02
2023-05-24T16:07:00.468Z,18.83
2023-05-24T16:10:23.218Z,19.09
2023-05-24T16:13:48.658Z,19.29
2023-05-24T16:17:11.587Z,19.64
2023-05-24T16:20:33.510Z,19.63
2023-05-24T16:23:55.379Z,19.77
2023-05-24T16:27:17.122Z,19.66
2023-05-24T16:30:40.065Z,19.45
2023-05-24T16:34:02.291Z,19.28
2023-05-24T16:37:23.846Z,19.17
2023-05-24T16:40:45.717Z,19.15
2023-05-24T16:44:07.839Z,19.41
2023-05-24T16:47:31.346Z,19.68
2023-05-24T16:50:54.419Z,20.00
2023-05-24T16:54:16.576Z,20.20
2023-05-24T16:57:38.348Z,20.45
2023-05-24T17:00:59.815Z,20.73
2023-05-24T17:04:23.489Z,20.92
2023-05-24T17:07:45.983Z,21.13
2023-05-24T17:11:08.127Z,21.28
2023-05-24T17:14:29.498Z,21.17
2023-05-24T17:17:51.744Z,21.18
2023-05-24T17:21:14.783Z,21.14
2023-05-24T17:24:36.508Z,21.15
2023-05-24T17:27:58.165Z,20.84
2023-05-24T17:31:19.849Z,20.73
2023-05-24T17:34:41.451Z,20.77
2023-05-24T17:38:04.367Z,20.76
2023-05-24T17:41:26.130Z,20.64
2023-05-24T17:44:48.053Z,20.38
2023-05-24T17:48:09.742Z,20.09
2023-05-24T17:51:31.640Z,19.83
2023-05-24T17:54:56.278Z,19.58
2023-05-24T17:58:17.724Z,19.26
2023-05-24T18:01:39.615Z,18.92
2023-05-24T18:05:01.550Z,18.70
2023-05-24T18:08:23.257Z,18.50
2023-05-24T18:11:46.555Z,18.28
2023-05-24T18:15:09.037Z,18.23
2023-05-24T18:18:31.195Z,18.07
2023-05-24T18:21:53.296Z,18.01
2023-05-24T18:25:14.966Z,17.98
2023-05-24T18:28:38.827Z,17.92
2023-05-24T18:32:00.329Z,17.86
2023-05-24T18:35:22.218Z,17.76
2023-05-24T18:38:47.211Z,17.70
2023-05-24T18:42:09.744Z,17.62
2023-05-24T18:45:33.232Z,17.55
2023-05-24T18:48:56.726Z,17.46
2023-05-24T18:52:19.953Z,17.38
2023-05-24T18:55:41.978Z,17.28
2023-05-24T18:59:03.663Z,17.17
2023-05-24T19:02:27.133Z,17.06
2023-05-24T19:05:49.373Z,16.98
2023-05-24T19:09:11.167Z,16.89
2023-05-24T19:12:32.611Z,16.80
2023-05-24T19:15:54.529Z,16.72
2023-05-24T19:19:17.867Z,16.66
2023-05-24T19:22:39.657Z,16.59
2023-05-24T19:26:01.220Z,16.52
2023-05-24T19:29:23.011Z,16.45
2023-05-24T19:32:44.626Z,16.37
2023-05-24T19:36:10.547Z,16.29
2023-05-24T19:39:32.284Z,16.20
2023-05-24T19:42:54.013Z,16.12
2023-05-24T19:46:15.899Z,16.03
2023-05-24T19:49:37.463Z,15.99
2023-05-24T19:53:00.727Z,15.94
2023-05-24T19:56:23.529Z,15.87
2023-05-24T19:59:45.017Z,15.81
2023-05-24T20:03:07.010Z,15.75
2023-05-24T20:06:29.555Z,15.71
2023-05-24T20:09:53.664Z,15.67
2023-05-24T20:13:14.967Z,15.66
2023-05-24T20:16:37.281Z,15.66
2023-05-24T20:19:58.777Z,15.64
2023-05-24T20:23:20.647Z,15.61
2023-05-24T20:26:43.872Z,15.56
2023-05-24T20:30:07.014Z,15.49
2023-05-24T20:33:28.829Z,15.42
2023-05-24T20:36:50.011Z,15.36
2023-05-24T20:40:13.470Z,15.30
2023-05-24T20:43:36.123Z,15.22
2023-05-24T20:46:57.900Z,15.14
2023-05-24T20:50:19.735Z,15.03
2023-05-24T20:53:41.729Z,14.93
2023-05-24T20:57:04.118Z,14.83
2023-05-24T21:00:27.149Z,14.75
2023-05-24T21:03:49.017Z,14.66
2023-05-24T21:07:10.524Z,14.55
2023-05-24T21:10:32.678Z,14.42
2023-05-24T21:13:56.576Z,14.31
2023-05-24T21:17:19.805Z,14.22
2023-05-24T21:20:41.579Z,14.13
2023-05-24T21:24:03.583Z,14.03
2023-05-24T21:27:25.361Z,13.99
2023-05-24T21:30:46.655Z,13.97
2023-05-24T21:34:10.022Z,13.94
2023-05-24T21:37:31.674Z,13.95
2023-05-24T21:40:54.012Z,13.94
2023-05-24T21:44:15.185Z,13.93
2023-05-24T21:47:37.117Z,13.92
2023-05-24T21:51:00.315Z,13.90
2023-05-24T21:54:22.621Z,13.88
2023-05-24T21:57:44.352Z,13.87
2023-05-24T22:01:06.210Z,13.85
2023-05-24T22:04:27.807Z,13.82
2023-05-24T22:07:51.470Z,13.78
2023-05-24T22:11:13.268Z,13.74
2023-05-24T22:14:35.231Z,13.71
2023-05-24T22:17:58.487Z,13.70
2023-05-24T22:21:21.566Z,13.67
2023-05-24T22:24:44.228Z,13.65
2023-05-24T22:28:08.584Z,13.64
2023-05-24T22:31:33.491Z,13.60
2023-05-24T22:34:55.204Z,13.58
2023-05-24T22:38:16.636Z,13.56
2023-05-24T22:41:39.772Z,13.53
2023-05-24T22:45:01.519Z,13.51
2023-05-24T22:48:26.667Z,13.51
2023-05-24T22:51:50.917Z,13.50
2023-05-24T22:55:12.725Z,13.48
2023-05-24T22:58:35.918Z,13.46
2023-05-24T23:01:57.427Z,13.44
2023-05-24T23:05:21.712Z,13.42
2023-05-24T23:08:43.297Z,13.38
2023-05-24T23:12:08.281Z,13.35
2023-05-24T23:15:32.028Z,13.33
2023-05-24T23:18:53.591Z,13.29
2023-05-24T23:22:18.396Z,13.25
2023-05-24T23:25:40.179Z,13.20
2023-05-24T23:29:02.783Z,13.16
2023-05-24T23:32:25.975Z,13.08
2023-05-24T23:35:47.892Z,13.00
2023-05-24T23:39:10.907Z,12.94
2023-05-24T23:42:32.760Z,12.86
2023-05-24T23:45:54.439Z,12.81
2023-05-24T23:49:17.585Z,12.76
2023-05-24T23:52:39.386Z,12.71
2023-05-24T23:56:01.208Z,12.66
2023-05-24T23:59:22.945Z,12.61
